sensor_id;sensor_type;location;lat;lon;timestamp;P1;durP1;ratioP1;P2;durP2;ratioP2
65667;SDS011;52369;52.542;13.232;2022-07-11T00:02:20;3.63;;;2.15;;
65667;SDS011;52369;52.542;13.232;2022-07-11T00:04:46;3.83;;;1.88;;
65667;SDS011;52369;52.542;13.232;2022-07-11T00:07:12;6.80;;;2.22;;
65667;SDS011;52369;52.542;13.232;2022-07-11T00:09:39;6.07;;;1.70;;
65667;SDS011;52369;52.542;13.232;2022-07-11T00:12:05;7.00;;;1.80;;
65667;SDS011;52369;52.542;13.232;2022-07-11T00:14:31;5.68;;;1.88;;
65667;SDS011;52369;52.542;13.232;2022-07-11T00:16:57;5.88;;;1.67;;
65667;SDS011;52369;52.542;13.232;2022-07-11T00:19:23;5.93;;;1.77;;
65667;SDS011;52369;52.542;13.232;2022-07-11T00:21:50;6.75;;;1.65;;
65667;SDS011;52369;52.542;13.232;2022-07-11T00:24:16;5.28;;;1.73;;
65667;SDS011;52369;52.542;13.232;2022-07-11T00:26:45;2.80;;;1.38;;
65667;SDS011;52369;52.542;13.232;2022-07-11T00:29:11;6.15;;;1.95;;
65667;SDS011;52369;52.542;13.232;2022-07-11T00:31:37;8.65;;;2.40;;
65667;SDS011;52369;52.542;13.232;2022-07-11T00:34:03;5.78;;;2.10;;
65667;SDS011;52369;52.542;13.232;2022-07-11T00:36:29;5.95;;;2.25;;
65667;SDS011;52369;52.542;13.232;2022-07-11T00:38:56;8.93;;;2.75;;
65667;SDS011;52369;52.542;13.232;2022-07-11T00:41:22;8.07;;;2.20;;
65667;SDS011;52369;52.542;13.232;2022-07-11T00:43:52;4.85;;;1.40;;
65667;SDS011;52369;52.542;13.232;2022-07-11T00:46:19;10.13;;;2.22;;
65667;SDS011;52369;52.542;13.232;2022-07-11T00:48:45;8.48;;;2.40;;
65667;SDS011;52369;52.542;13.232;2022-07-11T00:51:11;6.53;;;1.80;;
65667;SDS011;52369;52.542;13.232;2022-07-11T00:53:37;5.32;;;1.92;;
65667;SDS011;52369;52.542;13.232;2022-07-11T00:56:04;5.20;;;1.77;;
65667;SDS011;52369;52.542;13.232;2022-07-11T00:58:31;4.70;;;1.70;;
65667;SDS011;52369;52.542;13.232;2022-07-11T01:00:57;10.50;;;2.30;;
65667;SDS011;52369;52.542;13.232;2022-07-11T01:03:23;6.53;;;1.75;;
65667;SDS011;52369;52.542;13.232;2022-07-11T01:05:49;7.72;;;2.03;;
65667;SDS011;52369;52.542;13.232;2022-07-11T01:08:15;6.03;;;2.03;;
65667;SDS011;52369;52.542;13.232;2022-07-11T01:10:41;6.18;;;1.90;;
65667;SDS011;52369;52.542;13.232;2022-07-11T01:13:07;6.18;;;1.67;;
65667;SDS011;52369;52.542;13.232;2022-07-11T01:15:34;6.93;;;1.67;;
65667;SDS011;52369;52.542;13.232;2022-07-11T01:18:00;7.65;;;1.75;;
65667;SDS011;52369;52.542;13.232;2022-07-11T01:20:26;5.00;;;1.75;;
65667;SDS011;52369;52.542;13.232;2022-07-11T01:22:53;3.83;;;1.77;;
65667;SDS011;52369;52.542;13.232;2022-07-11T01:25:21;3.58;;;1.92;;
65667;SDS011;52369;52.542;13.232;2022-07-11T01:27:57;7.45;;;2.00;;
65667;SDS011;52369;52.542;13.232;2022-07-11T01:30:23;7.05;;;1.77;;
65667;SDS011;52369;52.542;13.232;2022-07-11T01:32:50;8.52;;;1.95;;
65667;SDS011;52369;52.542;13.232;2022-07-11T01:35:16;6.13;;;1.70;;
65667;SDS011;52369;52.542;13.232;2022-07-11T01:37:43;5.60;;;1.83;;
65667;SDS011;52369;52.542;13.232;2022-07-11T01:40:09;7.32;;;1.58;;
65667;SDS011;52369;52.542;13.232;2022-07-11T01:42:35;6.80;;;1.75;;
65667;SDS011;52369;52.542;13.232;2022-07-11T01:45:01;3.15;;;2.00;;
65667;SDS011;52369;52.542;13.232;2022-07-11T01:47:27;7.30;;;2.22;;
65667;SDS011;52369;52.542;13.232;2022-07-11T01:49:53;5.85;;;1.92;;
65667;SDS011;52369;52.542;13.232;2022-07-11T01:52:20;4.82;;;1.83;;
65667;SDS011;52369;52.542;13.232;2022-07-11T01:54:46;5.82;;;2.00;;
65667;SDS011;52369;52.542;13.232;2022-07-11T01:57:12;7.90;;;1.88;;
65667;SDS011;52369;52.542;13.232;2022-07-11T01:59:38;5.18;;;2.05;;
65667;SDS011;52369;52.542;13.232;2022-07-11T02:02:04;6.10;;;1.90;;
65667;SDS011;52369;52.542;13.232;2022-07-11T02:04:30;5.75;;;1.67;;
65667;SDS011;52369;52.542;13.232;2022-07-11T02:06:56;6.28;;;2.05;;
65667;SDS011;52369;52.542;13.232;2022-07-11T02:09:23;10.15;;;2.30;;
65667;SDS011;52369;52.542;13.232;2022-07-11T02:11:49;10.50;;;2.83;;
65667;SDS011;52369;52.542;13.232;2022-07-11T02:14:14;5.60;;;1.88;;
65667;SDS011;52369;52.542;13.232;2022-07-11T02:16:41;6.40;;;2.15;;
65667;SDS011;52369;52.542;13.232;2022-07-11T02:19:06;10.73;;;4.10;;
65667;SDS011;52369;52.542;13.232;2022-07-11T02:21:33;6.63;;;1.90;;
65667;SDS011;52369;52.542;13.232;2022-07-11T02:23:59;5.43;;;2.03;;
65667;SDS011;52369;52.542;13.232;2022-07-11T02:26:26;6.45;;;1.98;;
65667;SDS011;52369;52.542;13.232;2022-07-11T02:28:52;6.85;;;2.15;;
65667;SDS011;52369;52.542;13.232;2022-07-11T02:31:18;6.47;;;1.70;;
65667;SDS011;52369;52.542;13.232;2022-07-11T02:33:44;6.75;;;2.35;;
65667;SDS011;52369;52.542;13.232;2022-07-11T02:36:10;6.13;;;2.05;;
65667;SDS011;52369;52.542;13.232;2022-07-11T02:38:36;4.47;;;1.48;;
65667;SDS011;52369;52.542;13.232;2022-07-11T02:41:02;9.48;;;2.53;;
65667;SDS011;52369;52.542;13.232;2022-07-11T02:43:28;7.35;;;2.05;;
65667;SDS011;52369;52.542;13.232;2022-07-11T02:45:54;7.82;;;1.90;;
65667;SDS011;52369;52.542;13.232;2022-07-11T02:48:20;11.18;;;2.50;;
65667;SDS011;52369;52.542;13.232;2022-07-11T02:50:47;19.13;;;4.90;;
65667;SDS011;52369;52.542;13.232;2022-07-11T02:53:13;11.85;;;2.88;;
65667;SDS011;52369;52.542;13.232;2022-07-11T02:55:39;5.88;;;2.13;;
65667;SDS011;52369;52.542;13.232;2022-07-11T02:58:05;5.40;;;2.20;;
65667;SDS011;52369;52.542;13.232;2022-07-11T03:00:32;9.15;;;2.28;;
65667;SDS011;52369;52.542;13.232;2022-07-11T03:02:58;8.50;;;2.22;;
65667;SDS011;52369;52.542;13.232;2022-07-11T03:05:24;12.45;;;2.20;;
65667;SDS011;52369;52.542;13.232;2022-07-11T03:07:50;7.95;;;2.40;;
65667;SDS011;52369;52.542;13.232;2022-07-11T03:10:16;6.35;;;2.17;;
65667;SDS011;52369;52.542;13.232;2022-07-11T03:12:42;6.47;;;2.40;;
65667;SDS011;52369;52.542;13.232;2022-07-11T03:15:10;5.80;;;1.98;;
65667;SDS011;52369;52.542;13.232;2022-07-11T03:17:36;11.07;;;2.40;;
65667;SDS011;52369;52.542;13.232;2022-07-11T03:20:03;5.13;;;1.92;;
65667;SDS011;52369;52.542;13.232;2022-07-11T03:22:29;6.80;;;2.20;;
65667;SDS011;52369;52.542;13.232;2022-07-11T03:24:55;8.02;;;2.60;;
65667;SDS011;52369;52.542;13.232;2022-07-11T03:27:21;7.28;;;2.28;;
65667;SDS011;52369;52.542;13.232;2022-07-11T03:29:47;4.38;;;2.03;;
65667;SDS011;52369;52.542;13.232;2022-07-11T03:32:13;6.85;;;2.15;;
65667;SDS011;52369;52.542;13.232;2022-07-11T03:34:39;6.15;;;2.00;;
65667;SDS011;52369;52.542;13.232;2022-07-11T03:37:05;12.60;;;2.63;;
65667;SDS011;52369;52.542;13.232;2022-07-11T03:39:31;8.07;;;2.60;;
65667;SDS011;52369;52.542;13.232;2022-07-11T03:41:58;7.82;;;2.50;;
65667;SDS011;52369;52.542;13.232;2022-07-11T03:44:24;9.02;;;2.42;;
65667;SDS011;52369;52.542;13.232;2022-07-11T03:46:50;5.43;;;1.90;;
65667;SDS011;52369;52.542;13.232;2022-07-11T03:49:16;8.30;;;2.90;;
65667;SDS011;52369;52.542;13.232;2022-07-11T03:51:42;10.75;;;2.70;;
65667;SDS011;52369;52.542;13.232;2022-07-11T03:54:08;6.47;;;2.63;;
65667;SDS011;52369;52.542;13.232;2022-07-11T03:56:34;8.10;;;2.50;;
65667;SDS011;52369;52.542;13.232;2022-07-11T03:59:00;7.50;;;2.63;;
65667;SDS011;52369;52.542;13.232;2022-07-11T04:01:26;6.53;;;2.35;;
65667;SDS011;52369;52.542;13.232;2022-07-11T04:03:52;8.40;;;2.40;;
65667;SDS011;52369;52.542;13.232;2022-07-11T04:06:18;8.10;;;2.42;;
65667;SDS011;52369;52.542;13.232;2022-07-11T04:08:44;6.50;;;2.40;;
65667;SDS011;52369;52.542;13.232;2022-07-11T04:11:11;7.05;;;2.10;;
65667;SDS011;52369;52.542;13.232;2022-07-11T04:13:37;6.25;;;2.47;;
65667;SDS011;52369;52.542;13.232;2022-07-11T04:16:03;8.38;;;2.30;;
65667;SDS011;52369;52.542;13.232;2022-07-11T04:18:29;7.85;;;1.98;;
65667;SDS011;52369;52.542;13.232;2022-07-11T04:20:55;7.95;;;2.60;;
65667;SDS011;52369;52.542;13.232;2022-07-11T04:23:21;8.73;;;2.75;;
65667;SDS011;52369;52.542;13.232;2022-07-11T04:25:48;6.88;;;2.40;;
65667;SDS011;52369;52.542;13.232;2022-07-11T04:28:14;7.90;;;2.75;;
65667;SDS011;52369;52.542;13.232;2022-07-11T04:30:40;7.82;;;2.85;;
65667;SDS011;52369;52.542;13.232;2022-07-11T04:33:06;5.78;;;1.60;;
65667;SDS011;52369;52.542;13.232;2022-07-11T04:35:32;9.80;;;2.70;;
65667;SDS011;52369;52.542;13.232;2022-07-11T04:37:58;7.32;;;2.80;;
65667;SDS011;52369;52.542;13.232;2022-07-11T04:40:24;8.93;;;2.83;;
65667;SDS011;52369;52.542;13.232;2022-07-11T04:42:50;9.63;;;2.90;;
65667;SDS011;52369;52.542;13.232;2022-07-11T04:45:17;4.65;;;2.30;;
65667;SDS011;52369;52.542;13.232;2022-07-11T04:47:43;11.00;;;3.47;;
65667;SDS011;52369;52.542;13.232;2022-07-11T04:50:09;8.75;;;3.30;;
65667;SDS011;52369;52.542;13.232;2022-07-11T04:52:35;8.48;;;2.30;;
65667;SDS011;52369;52.542;13.232;2022-07-11T04:55:02;10.90;;;2.60;;
65667;SDS011;52369;52.542;13.232;2022-07-11T04:57:29;6.85;;;2.63;;
65667;SDS011;52369;52.542;13.232;2022-07-11T04:59:55;8.57;;;2.97;;
65667;SDS011;52369;52.542;13.232;2022-07-11T05:02:21;6.47;;;2.80;;
65667;SDS011;52369;52.542;13.232;2022-07-11T05:04:47;6.95;;;3.10;;
65667;SDS011;52369;52.542;13.232;2022-07-11T05:07:13;7.45;;;2.55;;
65667;SDS011;52369;52.542;13.232;2022-07-11T05:09:39;3.15;;;2.08;;
65667;SDS011;52369;52.542;13.232;2022-07-11T05:12:06;6.15;;;2.60;;
65667;SDS011;52369;52.542;13.232;2022-07-11T05:14:32;6.57;;;2.55;;
65667;SDS011;52369;52.542;13.232;2022-07-11T05:16:58;8.45;;;2.50;;
65667;SDS011;52369;52.542;13.232;2022-07-11T05:19:24;6.30;;;2.05;;
65667;SDS011;52369;52.542;13.232;2022-07-11T05:21:50;7.18;;;2.20;;
65667;SDS011;52369;52.542;13.232;2022-07-11T05:24:16;6.85;;;2.50;;
65667;SDS011;52369;52.542;13.232;2022-07-11T05:26:43;8.50;;;2.17;;
65667;SDS011;52369;52.542;13.232;2022-07-11T05:29:09;6.38;;;2.30;;
65667;SDS011;52369;52.542;13.232;2022-07-11T05:31:35;9.38;;;2.45;;
65667;SDS011;52369;52.542;13.232;2022-07-11T05:34:01;7.20;;;3.00;;
65667;SDS011;52369;52.542;13.232;2022-07-11T05:36:27;5.45;;;2.03;;
65667;SDS011;52369;52.542;13.232;2022-07-11T05:38:53;7.25;;;1.80;;
65667;SDS011;52369;52.542;13.232;2022-07-11T05:41:19;8.95;;;2.78;;
65667;SDS011;52369;52.542;13.232;2022-07-11T05:43:46;6.35;;;2.67;;
65667;SDS011;52369;52.542;13.232;2022-07-11T05:46:12;8.70;;;2.60;;
65667;SDS011;52369;52.542;13.232;2022-07-11T05:48:38;9.55;;;3.10;;
65667;SDS011;52369;52.542;13.232;2022-07-11T05:51:04;7.85;;;2.92;;
65667;SDS011;52369;52.542;13.232;2022-07-11T05:53:30;7.32;;;2.50;;
65667;SDS011;52369;52.542;13.232;2022-07-11T05:55:57;9.75;;;2.42;;
65667;SDS011;52369;52.542;13.232;2022-07-11T05:58:23;6.53;;;2.22;;
65667;SDS011;52369;52.542;13.232;2022-07-11T06:00:50;5.15;;;2.42;;
65667;SDS011;52369;52.542;13.232;2022-07-11T06:03:16;6.28;;;2.42;;
65667;SDS011;52369;52.542;13.232;2022-07-11T06:05:42;8.85;;;2.58;;
65667;SDS011;52369;52.542;13.232;2022-07-11T06:08:08;11.90;;;3.08;;
65667;SDS011;52369;52.542;13.232;2022-07-11T06:11:07;8.18;;;2.67;;
65667;SDS011;52369;52.542;13.232;2022-07-11T06:13:33;8.00;;;2.58;;
65667;SDS011;52369;52.542;13.232;2022-07-11T06:16:01;5.97;;;2.20;;
65667;SDS011;52369;52.542;13.232;2022-07-11T06:18:27;8.30;;;2.83;;
65667;SDS011;52369;52.542;13.232;2022-07-11T06:20:53;12.23;;;2.58;;
65667;SDS011;52369;52.542;13.232;2022-07-11T06:23:19;7.22;;;2.33;;
65667;SDS011;52369;52.542;13.232;2022-07-11T06:25:46;14.25;;;2.65;;
65667;SDS011;52369;52.542;13.232;2022-07-11T06:28:12;10.20;;;2.80;;
65667;SDS011;52369;52.542;13.232;2022-07-11T06:30:38;15.80;;;3.20;;
65667;SDS011;52369;52.542;13.232;2022-07-11T06:33:04;11.32;;;2.70;;
65667;SDS011;52369;52.542;13.232;2022-07-11T06:35:30;16.38;;;3.45;;
65667;SDS011;52369;52.542;13.232;2022-07-11T06:37:56;7.75;;;2.53;;
65667;SDS011;52369;52.542;13.232;2022-07-11T06:40:22;10.90;;;2.20;;
65667;SDS011;52369;52.542;13.232;2022-07-11T06:42:49;8.52;;;2.08;;
65667;SDS011;52369;52.542;13.232;2022-07-11T06:45:15;9.85;;;2.50;;
65667;SDS011;52369;52.542;13.232;2022-07-11T06:47:42;8.18;;;2.65;;
65667;SDS011;52369;52.542;13.232;2022-07-11T06:50:08;9.38;;;2.05;;
65667;SDS011;52369;52.542;13.232;2022-07-11T06:52:34;5.85;;;2.03;;
65667;SDS011;52369;52.542;13.232;2022-07-11T06:55:01;10.80;;;2.67;;
65667;SDS011;52369;52.542;13.232;2022-07-11T06:57:27;7.57;;;1.98;;
65667;SDS011;52369;52.542;13.232;2022-07-11T06:59:53;4.35;;;1.80;;
65667;SDS011;52369;52.542;13.232;2022-07-11T07:02:19;10.45;;;2.17;;
65667;SDS011;52369;52.542;13.232;2022-07-11T07:04:45;6.32;;;2.35;;
65667;SDS011;52369;52.542;13.232;2022-07-11T07:07:11;7.72;;;2.45;;
65667;SDS011;52369;52.542;13.232;2022-07-11T07:09:37;10.63;;;3.35;;
65667;SDS011;52369;52.542;13.232;2022-07-11T07:12:03;7.80;;;2.97;;
65667;SDS011;52369;52.542;13.232;2022-07-11T07:14:29;6.70;;;2.88;;
65667;SDS011;52369;52.542;13.232;2022-07-11T07:16:55;7.88;;;2.10;;
65667;SDS011;52369;52.542;13.232;2022-07-11T07:19:21;6.00;;;2.33;;
65667;SDS011;52369;52.542;13.232;2022-07-11T07:21:47;12.85;;;2.40;;
65667;SDS011;52369;52.542;13.232;2022-07-11T07:24:13;14.75;;;2.70;;
65667;SDS011;52369;52.542;13.232;2022-07-11T07:26:39;5.13;;;2.10;;
65667;SDS011;52369;52.542;13.232;2022-07-11T07:29:05;6.68;;;2.20;;
65667;SDS011;52369;52.542;13.232;2022-07-11T07:31:31;6.45;;;2.05;;
65667;SDS011;52369;52.542;13.232;2022-07-11T07:33:57;7.40;;;2.35;;
65667;SDS011;52369;52.542;13.232;2022-07-11T07:36:23;5.15;;;2.28;;
65667;SDS011;52369;52.542;13.232;2022-07-11T07:38:49;9.55;;;2.50;;
65667;SDS011;52369;52.542;13.232;2022-07-11T07:41:15;8.07;;;1.85;;
65667;SDS011;52369;52.542;13.232;2022-07-11T07:43:41;9.57;;;2.80;;
65667;SDS011;52369;52.542;13.232;2022-07-11T07:46:07;8.40;;;1.85;;
65667;SDS011;52369;52.542;13.232;2022-07-11T07:48:34;5.60;;;2.67;;
65667;SDS011;52369;52.542;13.232;2022-07-11T07:51:00;18.20;;;3.25;;
65667;SDS011;52369;52.542;13.232;2022-07-11T07:53:26;18.05;;;2.90;;
65667;SDS011;52369;52.542;13.232;2022-07-11T07:55:52;12.68;;;2.70;;
65667;SDS011;52369;52.542;13.232;2022-07-11T07:58:18;6.32;;;2.78;;
65667;SDS011;52369;52.542;13.232;2022-07-11T08:00:44;7.00;;;2.40;;
65667;SDS011;52369;52.542;13.232;2022-07-11T08:03:29;8.48;;;1.95;;
65667;SDS011;52369;52.542;13.232;2022-07-11T08:05:56;5.57;;;2.30;;
65667;SDS011;52369;52.542;13.232;2022-07-11T08:08:22;6.10;;;2.58;;
65667;SDS011;52369;52.542;13.232;2022-07-11T08:10:48;8.05;;;2.47;;
65667;SDS011;52369;52.542;13.232;2022-07-11T08:13:15;12.20;;;2.47;;
65667;SDS011;52369;52.542;13.232;2022-07-11T08:15:41;8.13;;;2.35;;
65667;SDS011;52369;52.542;13.232;2022-07-11T08:18:07;10.18;;;2.40;;
65667;SDS011;52369;52.542;13.232;2022-07-11T08:20:33;8.25;;;2.30;;
65667;SDS011;52369;52.542;13.232;2022-07-11T08:23:00;7.90;;;2.78;;
65667;SDS011;52369;52.542;13.232;2022-07-11T08:25:27;7.45;;;2.60;;
65667;SDS011;52369;52.542;13.232;2022-07-11T08:27:53;6.13;;;2.10;;
65667;SDS011;52369;52.542;13.232;2022-07-11T08:30:19;9.57;;;2.47;;
65667;SDS011;52369;52.542;13.232;2022-07-11T08:32:45;9.82;;;2.50;;
65667;SDS011;52369;52.542;13.232;2022-07-11T08:35:11;6.03;;;2.20;;
65667;SDS011;52369;52.542;13.232;2022-07-11T08:37:37;7.28;;;1.98;;
65667;SDS011;52369;52.542;13.232;2022-07-11T08:40:03;9.20;;;2.55;;
65667;SDS011;52369;52.542;13.232;2022-07-11T08:42:29;10.32;;;2.65;;
65667;SDS011;52369;52.542;13.232;2022-07-11T08:44:56;7.82;;;2.58;;
65667;SDS011;52369;52.542;13.232;2022-07-11T08:47:22;6.10;;;2.30;;
65667;SDS011;52369;52.542;13.232;2022-07-11T08:49:51;8.93;;;2.53;;
65667;SDS011;52369;52.542;13.232;2022-07-11T08:52:17;5.63;;;1.70;;
65667;SDS011;52369;52.542;13.232;2022-07-11T08:54:44;6.10;;;1.70;;
65667;SDS011;52369;52.542;13.232;2022-07-11T08:57:11;9.27;;;2.42;;
65667;SDS011;52369;52.542;13.232;2022-07-11T08:59:37;6.32;;;2.00;;
65667;SDS011;52369;52.542;13.232;2022-07-11T09:02:07;5.95;;;1.90;;
65667;SDS011;52369;52.542;13.232;2022-07-11T09:04:34;5.53;;;1.92;;
65667;SDS011;52369;52.542;13.232;2022-07-11T09:07:01;8.70;;;1.73;;
65667;SDS011;52369;52.542;13.232;2022-07-11T09:09:29;8.75;;;1.65;;
65667;SDS011;52369;52.542;13.232;2022-07-11T09:11:56;9.13;;;2.10;;
65667;SDS011;52369;52.542;13.232;2022-07-11T09:14:27;4.60;;;2.03;;
65667;SDS011;52369;52.542;13.232;2022-07-11T09:19:20;7.05;;;2.33;;
65667;SDS011;52369;52.542;13.232;2022-07-11T09:21:59;5.78;;;2.08;;
65667;SDS011;52369;52.542;13.232;2022-07-11T09:24:52;5.57;;;1.73;;
65667;SDS011;52369;52.542;13.232;2022-07-11T09:27:54;7.07;;;1.80;;
65667;SDS011;52369;52.542;13.232;2022-07-11T09:32:54;4.22;;;1.45;;
65667;SDS011;52369;52.542;13.232;2022-07-11T09:35:21;7.30;;;1.92;;
65667;SDS011;52369;52.542;13.232;2022-07-11T09:37:47;4.35;;;1.50;;
65667;SDS011;52369;52.542;13.232;2022-07-11T09:40:13;5.75;;;1.60;;
65667;SDS011;52369;52.542;13.232;2022-07-11T09:42:47;5.30;;;1.38;;
65667;SDS011;52369;52.542;13.232;2022-07-11T09:45:13;4.82;;;1.63;;
65667;SDS011;52369;52.542;13.232;2022-07-11T09:47:43;4.22;;;1.50;;
65667;SDS011;52369;52.542;13.232;2022-07-11T09:50:09;6.68;;;1.40;;
65667;SDS011;52369;52.542;13.232;2022-07-11T09:52:36;4.65;;;1.75;;
65667;SDS011;52369;52.542;13.232;2022-07-11T09:55:02;4.05;;;1.30;;
65667;SDS011;52369;52.542;13.232;2022-07-11T09:57:31;5.45;;;1.80;;
65667;SDS011;52369;52.542;13.232;2022-07-11T09:59:57;4.35;;;1.50;;
65667;SDS011;52369;52.542;13.232;2022-07-11T10:02:23;4.13;;;1.15;;
65667;SDS011;52369;52.542;13.232;2022-07-11T10:04:49;7.68;;;2.38;;
65667;SDS011;52369;52.542;13.232;2022-07-11T10:07:15;6.25;;;1.80;;
65667;SDS011;52369;52.542;13.232;2022-07-11T10:09:41;6.60;;;1.50;;
65667;SDS011;52369;52.542;13.232;2022-07-11T10:12:08;4.03;;;1.27;;
65667;SDS011;52369;52.542;13.232;2022-07-11T10:14:37;5.07;;;1.60;;
65667;SDS011;52369;52.542;13.232;2022-07-11T10:17:11;5.80;;;1.20;;
65667;SDS011;52369;52.542;13.232;2022-07-11T10:19:40;5.07;;;1.20;;
65667;SDS011;52369;52.542;13.232;2022-07-11T10:24:57;4.78;;;1.60;;
65667;SDS011;52369;52.542;13.232;2022-07-11T10:27:36;2.88;;;1.13;;
65667;SDS011;52369;52.542;13.232;2022-07-11T10:30:02;4.25;;;1.20;;
65667;SDS011;52369;52.542;13.232;2022-07-11T10:32:28;4.82;;;1.48;;
65667;SDS011;52369;52.542;13.232;2022-07-11T10:35:10;4.32;;;0.98;;
65667;SDS011;52369;52.542;13.232;2022-07-11T10:37:50;3.75;;;1.05;;
65667;SDS011;52369;52.542;13.232;2022-07-11T10:40:39;1.48;;;0.68;;
65667;SDS011;52369;52.542;13.232;2022-07-11T10:43:02;4.78;;;1.02;;
65667;SDS011;52369;52.542;13.232;2022-07-11T10:45:28;5.28;;;1.55;;
65667;SDS011;52369;52.542;13.232;2022-07-11T10:47:54;5.68;;;1.85;;
65667;SDS011;52369;52.542;13.232;2022-07-11T10:50:35;2.65;;;1.15;;
65667;SDS011;52369;52.542;13.232;2022-07-11T10:53:08;2.85;;;0.95;;
65667;SDS011;52369;52.542;13.232;2022-07-11T10:55:35;1.25;;;0.88;;
65667;SDS011;52369;52.542;13.232;2022-07-11T10:58:05;3.72;;;1.00;;
65667;SDS011;52369;52.542;13.232;2022-07-11T11:00:32;4.13;;;1.30;;
65667;SDS011;52369;52.542;13.232;2022-07-11T11:05:40;3.22;;;1.00;;
65667;SDS011;52369;52.542;13.232;2022-07-11T11:10:54;4.78;;;0.98;;
65667;SDS011;52369;52.542;13.232;2022-07-11T11:13:20;2.50;;;0.90;;
65667;SDS011;52369;52.542;13.232;2022-07-11T11:15:50;3.15;;;1.08;;
65667;SDS011;52369;52.542;13.232;2022-07-11T11:18:40;3.35;;;0.80;;
65667;SDS011;52369;52.542;13.232;2022-07-11T11:23:33;2.20;;;0.90;;
65667;SDS011;52369;52.542;13.232;2022-07-11T11:28:35;1.55;;;0.82;;
65667;SDS011;52369;52.542;13.232;2022-07-11T11:31:07;1.42;;;0.60;;
65667;SDS011;52369;52.542;13.232;2022-07-11T11:33:36;3.63;;;0.70;;
65667;SDS011;52369;52.542;13.232;2022-07-11T11:38:29;3.97;;;1.23;;
65667;SDS011;52369;52.542;13.232;2022-07-11T11:40:55;3.25;;;1.25;;
65667;SDS011;52369;52.542;13.232;2022-07-11T11:43:21;2.35;;;0.70;;
65667;SDS011;52369;52.542;13.232;2022-07-11T11:45:48;3.50;;;1.15;;
65667;SDS011;52369;52.542;13.232;2022-07-11T11:48:30;2.78;;;1.10;;
65667;SDS011;52369;52.542;13.232;2022-07-11T11:53:28;3.47;;;0.93;;
65667;SDS011;52369;52.542;13.232;2022-07-11T11:55:54;2.83;;;1.35;;
65667;SDS011;52369;52.542;13.232;2022-07-11T11:58:20;3.58;;;0.95;;
65667;SDS011;52369;52.542;13.232;2022-07-11T12:00:55;3.65;;;0.95;;
65667;SDS011;52369;52.542;13.232;2022-07-11T12:03:22;2.40;;;1.02;;
65667;SDS011;52369;52.542;13.232;2022-07-11T12:05:53;3.55;;;1.10;;
65667;SDS011;52369;52.542;13.232;2022-07-11T12:08:26;2.40;;;0.65;;
65667;SDS011;52369;52.542;13.232;2022-07-11T12:10:53;2.95;;;0.80;;
65667;SDS011;52369;52.542;13.232;2022-07-11T12:13:19;1.65;;;0.80;;
65667;SDS011;52369;52.542;13.232;2022-07-11T12:15:45;2.20;;;1.02;;
65667;SDS011;52369;52.542;13.232;2022-07-11T12:18:35;3.78;;;1.10;;
65667;SDS011;52369;52.542;13.232;2022-07-11T12:21:08;4.47;;;0.95;;
65667;SDS011;52369;52.542;13.232;2022-07-11T12:23:34;4.35;;;0.80;;
65667;SDS011;52369;52.542;13.232;2022-07-11T12:26:00;4.03;;;0.98;;
65667;SDS011;52369;52.542;13.232;2022-07-11T12:28:26;1.27;;;0.70;;
65667;SDS011;52369;52.542;13.232;2022-07-11T12:30:58;0.70;;;0.68;;
65667;SDS011;52369;52.542;13.232;2022-07-11T12:33:26;3.58;;;1.33;;
65667;SDS011;52369;52.542;13.232;2022-07-11T12:35:53;1.95;;;0.80;;
65667;SDS011;52369;52.542;13.232;2022-07-11T12:38:20;1.95;;;0.77;;
65667;SDS011;52369;52.542;13.232;2022-07-11T12:41:03;4.30;;;0.85;;
65667;SDS011;52369;52.542;13.232;2022-07-11T12:43:50;1.75;;;1.08;;
65667;SDS011;52369;52.542;13.232;2022-07-11T12:46:34;4.95;;;1.10;;
65667;SDS011;52369;52.542;13.232;2022-07-11T12:49:05;2.40;;;1.10;;
65667;SDS011;52369;52.542;13.232;2022-07-11T12:51:33;3.25;;;0.63;;
65667;SDS011;52369;52.542;13.232;2022-07-11T12:54:06;3.85;;;0.90;;
65667;SDS011;52369;52.542;13.232;2022-07-11T12:56:33;0.95;;;0.70;;
65667;SDS011;52369;52.542;13.232;2022-07-11T12:59:00;3.40;;;0.80;;
65667;SDS011;52369;52.542;13.232;2022-07-11T13:01:29;7.22;;;1.00;;
65667;SDS011;52369;52.542;13.232;2022-07-11T13:03:56;2.33;;;1.13;;
65667;SDS011;52369;52.542;13.232;2022-07-11T13:06:22;2.17;;;0.88;;
65667;SDS011;52369;52.542;13.232;2022-07-11T13:09:07;2.85;;;0.88;;
65667;SDS011;52369;52.542;13.232;2022-07-11T13:11:33;2.22;;;0.65;;
65667;SDS011;52369;52.542;13.232;2022-07-11T13:14:00;3.28;;;0.82;;
65667;SDS011;52369;52.542;13.232;2022-07-11T13:16:26;4.82;;;0.98;;
65667;SDS011;52369;52.542;13.232;2022-07-11T13:18:52;5.47;;;1.15;;
65667;SDS011;52369;52.542;13.232;2022-07-11T13:21:18;1.77;;;0.65;;
65667;SDS011;52369;52.542;13.232;2022-07-11T13:23:45;2.90;;;0.50;;
65667;SDS011;52369;52.542;13.232;2022-07-11T13:26:11;2.92;;;0.70;;
65667;SDS011;52369;52.542;13.232;2022-07-11T13:28:38;2.97;;;0.90;;
65667;SDS011;52369;52.542;13.232;2022-07-11T13:31:04;2.10;;;0.90;;
65667;SDS011;52369;52.542;13.232;2022-07-11T13:33:30;2.13;;;0.80;;
65667;SDS011;52369;52.542;13.232;2022-07-11T13:35:56;1.95;;;0.90;;
65667;SDS011;52369;52.542;13.232;2022-07-11T13:38:23;3.25;;;0.85;;
65667;SDS011;52369;52.542;13.232;2022-07-11T13:40:49;2.67;;;0.60;;
65667;SDS011;52369;52.542;13.232;2022-07-11T13:43:15;4.07;;;1.15;;
65667;SDS011;52369;52.542;13.232;2022-07-11T13:45:41;3.25;;;0.95;;
65667;SDS011;52369;52.542;13.232;2022-07-11T13:48:09;3.33;;;0.95;;
65667;SDS011;52369;52.542;13.232;2022-07-11T13:50:35;2.20;;;0.63;;
65667;SDS011;52369;52.542;13.232;2022-07-11T13:53:01;1.50;;;0.70;;
65667;SDS011;52369;52.542;13.232;2022-07-11T13:55:28;2.25;;;0.57;;
65667;SDS011;52369;52.542;13.232;2022-07-11T13:57:55;3.90;;;0.93;;
65667;SDS011;52369;52.542;13.232;2022-07-11T14:00:21;2.92;;;0.90;;
65667;SDS011;52369;52.542;13.232;2022-07-11T14:02:47;5.15;;;1.10;;
65667;SDS011;52369;52.542;13.232;2022-07-11T14:05:14;1.85;;;0.60;;
65667;SDS011;52369;52.542;13.232;2022-07-11T14:07:40;1.45;;;0.68;;
65667;SDS011;52369;52.542;13.232;2022-07-11T14:10:06;2.03;;;0.90;;
65667;SDS011;52369;52.542;13.232;2022-07-11T14:12:33;3.35;;;0.75;;
65667;SDS011;52369;52.542;13.232;2022-07-11T14:15:00;1.23;;;0.57;;
65667;SDS011;52369;52.542;13.232;2022-07-11T14:17:26;1.80;;;0.70;;
65667;SDS011;52369;52.542;13.232;2022-07-11T14:19:53;6.10;;;1.00;;
65667;SDS011;52369;52.542;13.232;2022-07-11T14:22:19;4.05;;;1.05;;
65667;SDS011;52369;52.542;13.232;2022-07-11T14:24:45;4.63;;;1.55;;
65667;SDS011;52369;52.542;13.232;2022-07-11T14:27:11;2.75;;;0.80;;
65667;SDS011;52369;52.542;13.232;2022-07-11T14:29:39;3.60;;;1.33;;
65667;SDS011;52369;52.542;13.232;2022-07-11T14:32:06;2.20;;;1.05;;
65667;SDS011;52369;52.542;13.232;2022-07-11T14:34:32;2.63;;;0.75;;
65667;SDS011;52369;52.542;13.232;2022-07-11T14:36:58;1.58;;;0.60;;
65667;SDS011;52369;52.542;13.232;2022-07-11T14:39:24;2.92;;;0.60;;
65667;SDS011;52369;52.542;13.232;2022-07-11T14:41:50;2.38;;;0.82;;
65667;SDS011;52369;52.542;13.232;2022-07-11T14:44:17;2.95;;;0.90;;
65667;SDS011;52369;52.542;13.232;2022-07-11T14:46:43;3.65;;;0.85;;
65667;SDS011;52369;52.542;13.232;2022-07-11T14:49:09;5.07;;;0.75;;
65667;SDS011;52369;52.542;13.232;2022-07-11T14:51:36;8.15;;;1.35;;
65667;SDS011;52369;52.542;13.232;2022-07-11T14:54:02;5.28;;;1.00;;
65667;SDS011;52369;52.542;13.232;2022-07-11T14:56:28;1.63;;;0.75;;
65667;SDS011;52369;52.542;13.232;2022-07-11T14:58:54;3.40;;;1.17;;